Time;durP1;ratioP1;P1;durP2;ratioP2;P2;SDS_P1;SDS_P2;PMS_P1;PMS_P2;Temp;Humidity;BMP_temperature;BMP_pressure;BME280_temperature;BME280_humidity;BME280_pressure;Samples;Min_cycle;Max_cycle;Signal;HPM_P1;HPM_P2
2022/04/10 00:00:36;;;;;;;9.30;6.38;;;;;;;2.37;100.00;99077.59;5032434;28;20029;-79
2022/04/10 00:03:02;;;;;;;11.75;6.40;;;;;;;2.45;100.00;99098.84;5032656;28;20076;-79
2022/04/10 00:05:28;;;;;;;8.77;6.03;;;;;;;2.42;100.00;99096.34;5049129;28;20037;-79
2022/04/10 00:07:53;;;;;;;11.57;5.65;;;;;;;2.33;100.00;99077.72;5049273;28;20491;-79
2022/04/10 00:10:18;;;;;;;12.30;7.53;;;;;;;2.40;100.00;99086.94;5032362;28;20035;-79
2022/04/10 00:12:44;;;;;;;11.38;6.57;;;;;;;2.33;100.00;99075.97;5032541;28;20037;-79
2022/04/10 00:15:11;;;;;;;9.10;5.78;;;;;;;2.31;100.00;99076.88;5032588;28;20456;-79
2022/04/10 00:17:36;;;;;;;10.07;6.90;;;;;;;2.35;100.00;99076.78;5049176;28;20487;-79
2022/04/10 00:20:03;;;;;;;8.23;5.65;;;;;;;2.33;100.00;99086.25;5032516;28;20167;-79
2022/04/10 00:22:28;;;;;;;10.40;5.95;;;;;;;2.25;100.00;99073.56;5048959;28;20076;-79
2022/04/10 00:24:54;;;;;;;12.20;6.68;;;;;;;2.37;100.00;99090.47;5064251;28;20040;-79
2022/04/10 00:27:19;;;;;;;8.65;6.10;;;;;;;2.38;100.00;99093.88;5073475;28;20454;-79
2022/04/10 00:29:45;;;;;;;9.20;5.75;;;;;;;2.35;100.00;99089.63;5073859;28;20035;-79
2022/04/10 00:32:11;;;;;;;8.27;5.57;;;;;;;2.37;100.00;99080.19;5073716;28;20024;-79
2022/04/10 00:34:36;;;;;;;11.77;7.00;;;;;;;2.21;100.00;99060.84;5073457;28;20027;-79
2022/04/10 00:37:02;;;;;;;10.88;6.88;;;;;;;2.37;100.00;99080.19;5073713;28;20024;-79
2022/04/10 00:39:27;;;;;;;9.43;6.80;;;;;;;2.35;100.00;99089.63;5073431;28;20031;-79
2022/04/10 00:41:53;;;;;;;17.05;8.68;;;;;;;2.35;100.00;99092.19;5091943;28;20027;-79
2022/04/10 00:44:18;;;;;;;12.50;6.50;;;;;;;2.34;100.00;99092.25;5073511;28;20115;-79
2022/04/10 00:46:43;;;;;;;10.27;6.28;;;;;;;2.15;100.00;99063.53;5073643;28;20434;-79
2022/04/10 00:49:09;;;;;;;11.27;7.07;;;;;;;2.28;100.00;99082.13;5076343;28;20048;-79
2022/04/10 00:51:41;;;;;;;10.23;5.53;;;;;;;2.30;100.00;99095.75;5077395;28;20058;-79
2022/04/10 00:54:11;;;;;;;9.90;5.30;;;;;;;2.29;100.00;99091.50;5077335;28;20028;-79
2022/04/10 00:56:37;;;;;;;10.68;5.70;;;;;;;2.28;100.00;99092.41;5095277;28;20035;-79
2022/04/10 00:59:04;;;;;;;8.15;4.75;;;;;;;2.26;100.00;99094.97;5077425;28;20020;-79
2022/04/10 01:01:29;;;;;;;5.78;4.57;;;;;;;2.28;100.00;99103.50;5095314;28;20036;-79
2022/04/10 01:03:54;;;;;;;8.25;4.85;;;;;;;2.27;100.00;99100.97;5095472;28;20080;-79
2022/04/10 01:06:21;;;;;;;9.60;5.00;;;;;;;2.15;100.00;99090.09;5094908;28;20032;-79
2022/04/10 01:08:47;;;;;;;6.15;4.32;;;;;;;2.13;100.00;99090.97;5095318;28;20032;-79
2022/04/10 01:11:13;;;;;;;5.72;4.28;;;;;;;2.14;100.00;99095.25;5095141;28;20048;-79
2022/04/10 01:13:39;;;;;;;7.32;4.50;;;;;;;2.13;100.00;99104.66;5076723;28;20032;-79
2022/04/10 01:16:05;;;;;;;7.95;4.90;;;;;;;2.12;100.00;99107.28;5076998;28;20027;-79
2022/04/10 01:18:31;;;;;;;6.32;5.13;;;;;;;2.13;100.00;99111.53;5094809;28;20028;-79
2022/04/10 01:20:56;;;;;;;7.40;4.43;;;;;;;2.06;100.00;99091.97;5076869;28;20021;-79
2022/04/10 01:23:22;;;;;;;6.40;4.70;;;;;;;2.12;100.00;99112.41;5094669;28;20391;-79
2022/04/10 01:25:48;;;;;;;6.85;4.85;;;;;;;2.11;100.00;99110.75;5094887;28;20070;-79
2022/04/10 01:28:13;;;;;;;7.13;4.80;;;;;;;2.04;100.00;99106.59;5094900;28;20051;-79
2022/04/10 01:30:39;;;;;;;6.95;4.25;;;;;;;2.08;100.00;99116.78;5094708;28;20028;-79
2022/04/10 01:33:05;;;;;;;9.77;5.57;;;;;;;2.07;100.00;99120.22;5094790;28;20024;-79
2022/04/10 01:35:32;;;;;;;6.78;4.25;;;;;;;2.04;100.00;99120.28;5094654;28;20384;-79
2022/04/10 01:38:00;;;;;;;8.13;4.50;;;;;;;2.04;100.00;99122.84;5094762;28;20036;-79
2022/04/10 01:40:26;;;;;;;7.93;4.47;;;;;;;2.00;100.00;99119.50;5076256;28;20399;-79
2022/04/10 01:42:51;;;;;;;6.75;4.55;;;;;;;2.02;100.00;99124.59;5076624;28;20028;-79
2022/04/10 01:45:16;;;;;;;6.53;4.93;;;;;;;1.93;100.00;99114.50;5076516;28;20031;-79
2022/04/10 01:47:42;;;;;;;8.93;5.43;;;;;;;1.87;100.00;99112.06;5076243;28;20123;-79
2022/04/10 01:50:08;;;;;;;5.82;4.28;;;;;;;1.95;100.00;99125.59;5076244;28;20048;-79
2022/04/10 01:52:33;;;;;;;6.15;4.78;;;;;;;1.91;100.00;99129.13;5076040;28;20467;-79
2022/04/10 01:54:59;;;;;;;6.13;4.20;;;;;;;1.91;100.00;99127.38;5094355;28;20460;-79
2022/04/10 01:57:24;;;;;;;8.57;4.70;;;;;;;1.95;100.00;99138.44;5094067;28;20098;-79
2022/04/10 01:59:49;;;;;;;7.15;4.68;;;;;;;1.92;100.00;99136.78;5093485;28;20125;-79
2022/04/10 02:02:15;;;;;;;5.50;4.25;;;;;;;1.92;100.00;99144.47;5094337;28;20550;-79
2022/04/10 02:04:40;;;;;;;6.22;4.30;;;;;;;1.92;100.00;99147.06;5075920;28;20487;-79
2022/04/10 02:07:06;;;;;;;7.15;4.50;;;;;;;1.91;100.00;99147.09;5075976;28;20055;-79
2022/04/10 02:09:31;;;;;;;4.68;4.00;;;;;;;1.81;100.00;99135.28;5075740;28;20090;-79
2022/04/10 02:11:57;;;;;;;6.25;4.13;;;;;;;1.90;100.00;99164.22;5076065;28;20532;-79
2022/04/10 02:14:22;;;;;;;6.75;4.38;;;;;;;1.87;100.00;99160.88;5075821;28;20074;-80
2022/04/10 02:16:47;;;;;;;10.30;4.88;;;;;;;1.86;100.00;99162.59;5093882;28;20031;-79
2022/04/10 02:19:13;;;;;;;5.45;4.13;;;;;;;1.83;100.00;99166.94;5075843;28;20028;-79
2022/04/10 02:21:38;;;;;;;10.00;4.63;;;;;;;1.74;100.00;99158.53;5075521;28;20024;-79
2022/04/10 02:24:04;;;;;;;5.82;4.07;;;;;;;1.82;100.00;99178.09;5075522;28;20038;-79
2022/04/10 02:26:29;;;;;;;6.35;4.32;;;;;;;1.71;100.00;99161.16;5093778;28;20020;-79
2022/04/10 02:28:55;;;;;;;4.97;3.97;;;;;;;1.74;100.00;99171.38;5075745;28;20071;-80
2022/04/10 02:31:20;;;;;;;6.00;4.07;;;;;;;1.72;100.00;99165.41;5075703;28;20024;-79
2022/04/10 02:33:45;;;;;;;7.40;4.30;;;;;;;1.75;100.00;99182.47;5093324;28;20384;-79
2022/04/10 02:36:11;;;;;;;7.07;4.20;;;;;;;1.72;100.00;99174.81;5093562;28;20024;-79
2022/04/10 02:38:37;;;;;;;5.15;4.10;;;;;;;1.67;100.00;99171.50;5074994;28;20507;-79
2022/04/10 02:41:02;;;;;;;9.38;4.65;;;;;;;1.71;100.00;99180.84;5075494;28;20024;-79
2022/04/10 02:43:28;;;;;;;5.20;4.13;;;;;;;1.68;100.00;99179.16;5075215;28;20064;-79
2022/04/10 02:45:53;;;;;;;5.75;4.43;;;;;;;1.68;100.00;99180.88;5075360;28;20047;-79
2022/04/10 02:51:40;;;;;;;6.47;4.43;;;;;;;1.63;100.00;99185.25;5071078;28;20060;-79
2022/04/10 02:54:06;;;;;;;7.97;4.88;;;;;;;1.60;100.00;99186.19;5075052;28;20395;-79
2022/04/10 02:56:31;;;;;;;7.25;4.50;;;;;;;1.54;100.00;99178.56;5093044;28;20028;-79
2022/04/10 02:58:56;;;;;;;8.73;4.90;;;;;;;1.61;100.00;99187.88;5075010;28;20071;-79
2022/04/10 03:01:22;;;;;;;7.65;4.95;;;;;;;1.57;100.00;99186.22;5074936;28;20024;-79
2022/04/10 03:03:47;;;;;;;6.38;4.82;;;;;;;1.59;100.00;99193.88;5074535;28;20139;-79
2022/04/10 03:06:12;;;;;;;8.65;4.55;;;;;;;1.47;100.00;99185.53;5074890;28;20043;-79
2022/04/10 03:08:38;;;;;;;9.60;5.05;;;;;;;1.57;100.00;99200.78;5092705;28;20028;-79
2022/04/10 03:11:03;;;;;;;8.63;5.25;;;;;;;1.55;100.00;99193.09;5074782;28;20414;-79
2022/04/10 03:13:29;;;;;;;8.13;4.65;;;;;;;1.54;100.00;99199.09;5074382;28;20036;-79
2022/04/10 03:15:54;;;;;;;6.68;4.60;;;;;;;1.55;100.00;99203.34;5092861;28;20028;-79
2022/04/10 03:18:20;;;;;;;7.38;5.00;;;;;;;1.54;100.00;99206.81;5092670;28;20031;-79
2022/04/10 03:20:45;;;;;;;7.03;4.82;;;;;;;1.53;100.00;99204.28;5074556;28;20385;-79
2022/04/10 03:23:11;;;;;;;8.63;4.28;;;;;;;1.51;100.00;99199.16;5092903;28;20034;-79
2022/04/10 03:25:36;;;;;;;5.97;4.57;;;;;;;1.49;100.00;99204.31;5029863;28;20061;-79
2022/04/10 03:28:02;;;;;;;10.18;4.97;;;;;;;1.50;100.00;99210.28;5030062;28;20045;-78
2022/04/10 03:30:27;;;;;;;5.93;4.70;;;;;;;1.50;100.00;99207.72;5013108;28;20037;-79
2022/04/10 03:32:53;;;;;;;5.90;4.65;;;;;;;1.49;100.00;99209.44;5029813;28;20065;-79
2022/04/10 03:35:18;;;;;;;7.13;5.30;;;;;;;1.49;100.00;99212.03;5030183;28;20052;-79
2022/04/10 03:37:43;;;;;;;7.03;4.55;;;;;;;1.41;100.00;99206.16;5013132;28;20385;-79
2022/04/10 03:40:09;;;;;;;6.20;5.10;;;;;;;1.43;100.00;99218.97;5013315;28;20048;-79
2022/04/10 03:42:39;;;;;;;5.75;4.82;;;;;;;1.46;100.00;99231.75;5013278;28;20029;-79
2022/04/10 03:45:09;;;;;;;9.30;4.70;;;;;;;1.42;100.00;99228.38;5013124;28;20068;-79
2022/04/10 03:47:34;;;;;;;7.95;4.82;;;;;;;1.39;100.00;99230.16;5029369;28;20432;-79
2022/04/10 03:50:00;;;;;;;6.07;5.40;;;;;;;1.40;100.00;99227.56;5029739;28;20055;-79
2022/04/10 03:52:25;;;;;;;8.82;5.55;;;;;;;1.32;100.00;99228.56;5012932;28;20053;-79
2022/04/10 03:54:50;;;;;;;5.60;4.82;;;;;;;1.36;100.00;99238.75;5012868;28;20021;-79
2022/04/10 03:57:16;;;;;;;7.15;4.68;;;;;;;1.39;100.00;99255.81;5060511;28;20044;-79
2022/04/10 03:59:41;;;;;;;5.47;4.78;;;;;;;1.36;100.00;99261.84;5073724;28;20031;-79
2022/04/10 04:02:06;;;;;;;7.53;5.03;;;;;;;1.36;100.00;99264.41;5073969;28;20222;-79
2022/04/10 04:04:32;;;;;;;8.65;5.40;;;;;;;1.38;100.00;99269.50;5092081;28;20084;-79
2022/04/10 04:06:58;;;;;;;8.13;5.85;;;;;;;1.38;100.00;99269.50;5073950;28;20035;-79
2022/04/10 04:09:24;;;;;;;6.00;5.40;;;;;;;1.39;100.00;99282.34;5092154;28;20016;-79
2022/04/10 04:11:49;;;;;;;10.65;6.45;;;;;;;1.38;100.00;99274.66;5073560;28;20038;-79
2022/04/10 04:14:15;;;;;;;8.95;5.95;;;;;;;1.47;100.00;99283.03;5091951;28;20024;-79
2022/04/10 04:16:41;;;;;;;8.48;5.80;;;;;;;1.50;100.00;99277.88;5091653;28;20044;-79
2022/04/10 04:19:07;;;;;;;7.35;5.65;;;;;;;1.64;100.00;99284.50;5092172;28;20111;-79
2022/04/10 04:21:32;;;;;;;6.72;6.03;;;;;;;1.65;100.00;99268.25;5073674;28;20028;-79
2022/04/10 04:23:58;;;;;;;9.45;6.88;;;;;;;1.77;100.00;99295.41;5094588;28;20020;-79
2022/04/10 04:26:23;;;;;;;9.52;6.65;;;;;;;1.87;100.00;99294.41;5077901;28;20119;-79
2022/04/10 04:28:49;;;;;;;9.13;6.30;;;;;;;1.97;100.00;99301.06;5095767;28;20024;-80
2022/04/10 04:31:14;;;;;;;9.10;6.40;;;;;;;1.95;100.00;99288.25;5077674;28;20111;-79
2022/04/10 04:33:39;;;;;;;10.32;6.63;;;;;;;2.14;100.00;99305.91;5095549;28;20029;-79
2022/04/10 04:36:05;;;;;;;9.48;6.70;;;;;;;2.19;100.00;99301.50;5077854;28;20024;-79
2022/04/10 04:38:30;;;;;;;8.13;7.10;;;;;;;2.24;100.00;99303.16;5095980;28;20115;-80
2022/04/10 04:40:55;;;;;;;9.48;6.63;;;;;;;2.41;100.00;99318.25;5077354;28;20024;-79
2022/04/10 04:43:21;;;;;;;7.80;6.32;;;;;;;2.52;100.00;99324.91;5077535;28;20032;-79
2022/04/10 04:45:46;;;;;;;7.05;6.13;;;;;;;2.64;100.00;99324.66;5095658;28;20080;-79
2022/04/10 04:48:11;;;;;;;7.90;6.82;;;;;;;2.70;100.00;99327.97;5096016;28;20055;-79
2022/04/10 04:50:37;;;;;;;9.10;6.53;;;;;;;2.80;100.00;99327.78;5077401;28;20038;-79
2022/04/10 04:53:02;;;;;;;11.52;7.10;;;;;;;2.89;100.00;99332.75;5077262;28;20098;-79
2022/04/10 04:55:28;;;;;;;8.23;6.25;;;;;;;2.84;100.00;99321.69;5077358;28;20031;-79
2022/04/10 04:57:53;;;;;;;7.47;5.90;;;;;;;3.07;100.00;99339.22;5095297;28;20024;-79
2022/04/10 05:00:19;;;;;;;8.25;6.50;;;;;;;3.19;100.00;99347.53;5095519;28;20425;-79
2022/04/10 05:02:45;;;;;;;6.85;5.70;;;;;;;3.25;100.00;99349.97;5077080;28;20557;-79
2022/04/10 05:05:11;;;;;;;7.40;5.75;;;;;;;3.35;100.00;99337.75;5095752;28;20141;-79
2022/04/10 05:07:37;;;;;;;9.13;6.70;;;;;;;3.72;100.00;99354.94;5076878;28;20119;-79
2022/04/10 05:10:02;;;;;;;6.68;5.97;;;;;;;4.20;100.00;99347.72;5077128;28;20166;-79
2022/04/10 05:12:28;;;;;;;7.75;6.05;;;;;;;5.17;100.00;99353.66;5077063;28;20032;-79
2022/04/10 05:14:54;;;;;;;6.60;5.90;;;;;;;6.34;100.00;99350.00;5076553;28;20508;-79
2022/04/10 05:17:19;;;;;;;7.13;6.43;;;;;;;6.97;99.43;99348.63;5095616;28;20032;-79
2022/04/10 05:19:44;;;;;;;10.45;5.68;;;;;;;7.11;97.12;99355.88;5095031;28;20099;-79
2022/04/10 05:22:10;;;;;;;7.00;6.13;;;;;;;6.75;95.73;99359.75;5095412;28;20020;-79
2022/04/10 05:24:35;;;;;;;6.55;5.65;;;;;;;6.71;95.73;99354.75;5076609;28;20028;-79
2022/04/10 05:27:00;;;;;;;6.00;5.13;;;;;;;6.37;94.96;99349.91;5095288;28;20028;-80
2022/04/10 05:29:26;;;;;;;7.82;6.18;;;;;;;6.11;95.92;99374.03;5094843;28;20020;-80
2022/04/10 05:31:51;;;;;;;7.07;5.13;;;;;;;5.72;96.78;99357.16;5095119;28;20059;-81
2022/04/10 05:34:17;;;;;;;7.10;5.43;;;;;;;5.69;97.83;99371.94;5075296;28;20032;-80
2022/04/10 05:36:42;;;;;;;8.18;5.60;;;;;;;5.74;98.32;99375.22;5076222;28;20030;-81
2022/04/10 05:39:07;;;;;;;6.75;5.30;;;;;;;5.84;98.86;99386.94;5076577;28;20364;-80
2022/04/10 05:41:33;;;;;;;7.10;5.18;;;;;;;5.99;97.68;99386.50;5094645;28;20028;-81
2022/04/10 05:43:58;;;;;;;6.38;5.63;;;;;;;5.94;97.48;99387.50;5094343;28;20487;-81
2022/04/10 05:46:25;;;;;;;9.13;5.47;;;;;;;5.86;97.32;99400.66;5095035;28;20032;-81
2022/04/10 05:48:51;;;;;;;5.45;4.95;;;;;;;5.72;97.53;99397.66;5094598;28;20016;-81
2022/04/10 05:51:16;;;;;;;6.90;6.13;;;;;;;5.90;97.71;99391.06;5094574;28;20028;-81
2022/04/10 05:53:42;;;;;;;10.23;6.07;;;;;;;6.03;96.82;99402.75;5094117;28;20059;-81
2022/04/10 05:56:07;;;;;;;8.57;6.32;;;;;;;5.94;96.67;99396.13;5094320;28;20059;-81
2022/04/10 05:58:33;;;;;;;7.53;6.25;;;;;;;5.74;96.75;99394.13;5076131;28;20028;-79
2022/04/10 06:00:58;;;;;;;7.50;6.18;;;;;;;5.63;97.34;99403.94;5094012;28;20023;-79
2022/04/10 06:03:23;;;;;;;9.60;7.10;;;;;;;5.49;97.90;99406.94;5094363;28;20059;-79
2022/04/10 06:05:49;;;;;;;8.25;6.65;;;;;;;5.35;98.08;99401.34;5094363;28;20448;-79
2022/04/10 06:08:14;;;;;;;8.75;6.88;;;;;;;5.30;98.97;99413.53;5075965;28;20030;-79
2022/04/10 06:10:39;;;;;;;10.82;7.00;;;;;;;5.11;99.22;99399.47;5093860;28;20024;-79
2022/04/10 06:13:09;;;;;;;8.98;6.70;;;;;;;5.05;99.67;99417.69;5093914;28;20028;-79
2022/04/10 06:15:35;;;;;;;10.70;7.13;;;;;;;4.95;99.68;99415.38;5093962;28;20590;-79
2022/04/10 06:18:00;;;;;;;9.77;6.53;;;;;;;4.89;100.00;99428.47;5093920;28;20277;-79
2022/04/10 06:20:26;;;;;;;9.02;6.80;;;;;;;4.89;100.00;99428.47;5093905;28;20062;-79
2022/04/10 06:22:51;;;;;;;10.68;6.97;;;;;;;4.73;100.00;99409.97;5075440;28;20028;-79
2022/04/10 06:25:17;;;;;;;12.18;7.25;;;;;;;4.81;100.00;99427.81;5075740;28;20039;-79
2022/04/10 06:27:42;;;;;;;11.23;7.55;;;;;;;4.76;100.00;99434.81;5075262;28;20039;-80
2022/04/10 06:30:08;;;;;;;10.38;6.90;;;;;;;4.72;100.00;99433.22;5093862;28;20024;-79
2022/04/10 06:32:33;;;;;;;10.68;7.57;;;;;;;4.67;100.00;99437.63;5093725;28;20438;-80
2022/04/10 06:34:59;;;;;;;10.20;7.43;;;;;;;4.81;100.00;99453.63;5093393;28;20032;-81
2022/04/10 06:37:24;;;;;;;8.50;6.72;;;;;;;4.87;100.00;99448.28;5093537;28;20028;-81
2022/04/10 06:39:49;;;;;;;10.32;7.20;;;;;;;4.81;100.00;99452.78;5075148;28;20105;-79
2022/04/10 06:42:15;;;;;;;12.00;6.93;;;;;;;4.74;100.00;99452.09;5075290;28;20024;-79
2022/04/10 06:44:41;;;;;;;10.48;6.22;;;;;;;4.78;100.00;99463.19;5074955;28;20132;-79
2022/04/10 06:47:06;;;;;;;8.15;5.50;;;;;;;4.74;100.00;99455.50;5074950;28;20522;-79
2022/04/10 06:49:32;;;;;;;6.63;5.60;;;;;;;4.80;100.00;99459.66;5093412;28;20020;-79
2022/04/10 06:51:57;;;;;;;10.60;6.07;;;;;;;4.86;100.00;99458.66;5092990;28;20103;-79
2022/04/10 06:54:22;;;;;;;9.13;5.95;;;;;;;4.94;99.84;99459.31;5075083;28;20074;-79
2022/04/10 06:56:48;;;;;;;9.30;5.75;;;;;;;4.97;99.39;99465.25;5074875;28;20486;-79
2022/04/10 06:59:13;;;;;;;6.93;5.13;;;;;;;4.94;99.40;99446.41;5093105;28;20069;-79
2022/04/10 07:01:39;;;;;;;10.70;5.50;;;;;;;5.00;98.33;99438.47;5075093;28;20081;-79
2022/04/10 07:04:05;;;;;;;7.72;5.35;;;;;;;5.12;97.28;99452.78;5093368;28;20070;-79
2022/04/10 07:06:30;;;;;;;7.70;4.50;;;;;;;5.11;96.75;99443.38;5092980;28;20093;-78
2022/04/10 07:08:57;;;;;;;7.07;3.92;;;;;;;5.16;96.21;99454.41;5093134;28;20418;-79
2022/04/10 07:11:23;;;;;;;7.43;4.50;;;;;;;5.11;95.71;99453.69;5074741;28;20513;-79
2022/04/10 07:13:48;;;;;;;8.88;4.18;;;;;;;5.11;95.77;99451.94;5092482;28;20024;-79
2022/04/10 07:16:14;;;;;;;7.90;4.18;;;;;;;5.12;95.30;99457.97;5074800;28;20459;-79
2022/04/10 07:18:39;;;;;;;6.00;3.80;;;;;;;5.21;95.24;99460.28;5092868;28;20028;-79
2022/04/10 07:21:04;;;;;;;9.70;4.13;;;;;;;5.43;93.93;99456.19;5092668;28;20360;-79
2022/04/10 07:23:42;;;;;;;7.07;4.05;;;;;;;5.63;92.30;99439.28;5074525;28;20028;-79
2022/04/10 07:26:11;;;;;;;7.03;4.00;;;;;;;5.89;91.55;99454.00;5049787;28;20088;-79
2022/04/10 07:28:40;;;;;;;10.10;4.40;;;;;;;6.00;91.32;99444.19;5033235;28;20646;-79
2022/04/10 07:31:09;;;;;;;6.07;3.50;;;;;;;6.20;90.46;99449.59;5049799;28;20041;-79
2022/04/10 07:33:35;;;;;;;8.40;3.25;;;;;;;6.49;88.30;99452.97;5033129;28;20032;-79
2022/04/10 07:36:01;;;;;;;7.80;4.20;;;;;;;6.63;87.99;99455.09;5049563;28;20041;-79
2022/04/10 07:38:27;;;;;;;6.40;3.78;;;;;;;6.53;87.19;99433.00;5049814;28;20033;-79
2022/04/10 07:40:52;;;;;;;7.15;3.08;;;;;;;6.63;86.05;99457.69;5009611;28;20058;-79
2022/04/10 07:43:18;;;;;;;5.45;3.17;;;;;;;6.48;85.44;99449.53;5010109;28;20052;-79
2022/04/10 07:48:27;;;;;;;7.68;3.60;;;;;;;6.29;85.06;99452.78;5010300;28;20065;-79
2022/04/10 07:50:53;;;;;;;6.85;3.72;;;;;;;6.27;85.43;99452.81;5009729;28;20042;-79
2022/04/10 07:53:18;;;;;;;7.57;3.50;;;;;;;6.35;84.95;99462.91;4993171;28;20153;-79
2022/04/10 07:55:44;;;;;;;7.90;3.70;;;;;;;6.29;83.79;99455.38;4993250;28;20042;-79
2022/04/10 07:58:09;;;;;;;5.78;3.33;;;;;;;6.30;83.71;99462.22;5045813;28;20463;-79
2022/04/10 08:00:34;;;;;;;7.65;3.78;;;;;;;6.43;83.61;99468.69;5049544;28;20033;-79
2022/04/10 08:03:01;;;;;;;12.63;6.10;;;;;;;6.64;83.35;99469.72;5032528;28;20029;-79
2022/04/10 08:05:26;;;;;;;9.95;5.13;;;;;;;6.54;82.54;99450.25;5043262;28;20038;-79
2022/04/10 08:07:52;;;;;;;8.38;4.78;;;;;;;6.53;81.78;99469.22;5029289;28;20051;-80
2022/04/10 08:10:17;;;;;;;22.65;10.85;;;;;;;6.59;81.43;99472.47;5031571;28;20027;-79
2022/04/10 08:12:43;;;;;;;22.70;10.68;;;;;;;6.92;80.95;99472.22;5074642;28;20118;-79
2022/04/10 08:15:10;;;;;;;10.15;5.20;;;;;;;7.00;79.97;99465.88;5071096;28;20646;-79
2022/04/10 08:17:36;;;;;;;5.90;2.80;;;;;;;7.12;79.00;99474.09;5092124;28;20032;-79
2022/04/10 08:20:04;;;;;;;5.15;2.50;;;;;;;7.02;78.06;99465.81;5092069;28;20073;-79
2022/04/10 08:22:30;;;;;;;8.13;4.10;;;;;;;7.10;77.24;99475.91;5092072;28;20107;-79
2022/04/10 08:25:03;;;;;;;8.23;3.97;;;;;;;7.04;77.51;99481.28;5073508;28;20114;-79
2022/04/10 08:27:30;;;;;;;7.07;3.88;;;;;;;7.03;77.44;99469.25;5073775;28;20055;-79
2022/04/10 08:29:55;;;;;;;7.28;4.18;;;;;;;7.15;78.16;99476.59;5091748;28;20028;-79
2022/04/10 08:32:21;;;;;;;11.82;4.55;;;;;;;7.24;78.00;99487.47;5091881;28;20024;-79
2022/04/10 08:34:47;;;;;;;10.85;4.00;;;;;;;7.38;77.20;99486.16;5091415;28;20063;-78
2022/04/10 08:37:13;;;;;;;6.53;3.40;;;;;;;7.40;76.10;99479.16;5073547;28;20024;-79
2022/04/10 08:39:38;;;;;;;6.57;2.90;;;;;;;7.37;75.32;99490.47;5092227;28;20349;-79
2022/04/10 08:42:06;;;;;;;6.90;3.22;;;;;;;7.33;75.36;99491.50;5071119;28;20029;-79
2022/04/10 08:44:32;;;;;;;11.30;5.72;;;;;;;7.35;74.85;99494.03;5087760;28;20024;-79
2022/04/10 08:46:59;;;;;;;10.50;5.18;;;;;;;7.20;75.72;99487.63;5056390;28;20036;-79
2022/04/10 08:49:26;;;;;;;9.93;5.13;;;;;;;7.24;76.00;99497.84;5065335;28;20422;-77
2022/04/10 08:51:52;;;;;;;5.28;3.00;;;;;;;7.37;75.97;99492.22;5073409;28;20415;-79
2022/04/10 08:54:22;;;;;;;10.30;4.07;;;;;;;7.42;75.71;99493.75;5070467;28;20069;-79
2022/04/10 08:56:47;;;;;;;8.43;4.97;;;;;;;7.59;75.76;99511.28;5088788;28;20028;-79
2022/04/10 08:59:12;;;;;;;6.72;3.75;;;;;;;7.62;75.53;99490.41;5082341;28;20103;-79
2022/04/10 09:01:38;;;;;;;7.68;3.92;;;;;;;7.71;75.99;99494.41;5064802;28;20389;-80
2022/04/10 09:04:04;;;;;;;8.93;5.28;;;;;;;7.90;75.78;99503.19;5052965;28;20064;-80
2022/04/10 09:06:30;;;;;;;7.07;3.92;;;;;;;8.04;74.99;99494.88;5071333;28;20028;-80
2022/04/10 09:09:12;;;;;;;7.88;3.70;;;;;;;8.12;74.72;99494.59;5054035;28;20102;-80
2022/04/10 09:11:42;;;;;;;6.80;2.97;;;;;;;7.96;74.45;99491.75;5075010;28;20028;-80
2022/04/10 09:14:07;;;;;;;5.85;3.65;;;;;;;7.92;74.60;99509.19;5074824;28;20032;-79
2022/04/10 09:16:32;;;;;;;5.53;3.35;;;;;;;7.84;74.24;99506.03;5074856;28;20111;-79
2022/04/10 09:19:01;;;;;;;8.80;3.28;;;;;;;7.91;74.57;99511.81;5074856;28;20024;-79
2022/04/10 09:21:32;;;;;;;9.55;4.90;;;;;;;7.96;74.45;99478.78;5072498;28;20056;-80
2022/04/10 09:24:06;;;;;;;8.90;4.28;;;;;;;8.45;74.35;99513.22;5070875;28;20455;-80
2022/04/10 09:26:56;;;;;;;7.38;3.53;;;;;;;8.35;72.98;99523.09;5059322;28;20024;-80
2022/04/10 09:29:23;;;;;;;9.15;3.88;;;;;;;8.18;72.78;99523.75;4991475;28;20813;-80
2022/04/10 09:31:50;;;;;;;9.30;4.55;;;;;;;7.87;72.32;99507.66;4992268;28;20084;-80
2022/04/10 09:34:18;;;;;;;11.93;5.60;;;;;;;7.62;73.36;99529.28;4976566;28;20516;-80
2022/04/10 09:36:48;;;;;;;8.48;4.20;;;;;;;7.34;75.26;99513.06;4953907;28;20459;-80
2022/04/10 09:39:30;;;;;;;9.95;5.05;;;;;;;7.25;77.57;99528.03;4953855;28;20071;-79
2022/04/10 09:42:15;;;;;;;14.18;7.03;;;;;;;7.21;78.59;99512.66;4953813;29;20176;-80
2022/04/10 09:44:41;;;;;;;7.68;4.47;;;;;;;7.40;80.56;99518.03;4937549;29;20373;-80
2022/04/10 09:47:08;;;;;;;15.70;8.35;;;;;;;7.62;80.25;99502.53;4937547;29;20055;-80
2022/04/10 09:49:35;;;;;;;11.23;5.20;;;;;;;7.96;79.06;99513.34;4937811;29;20041;-79
2022/04/10 09:52:05;;;;;;;11.35;5.97;;;;;;;8.29;77.71;99507.75;4953337;28;20487;-79
2022/04/10 09:54:41;;;;;;;12.57;8.00;;;;;;;8.52;76.56;99480.06;4937534;29;20126;-79
2022/04/10 09:57:13;;;;;;;8.85;4.95;;;;;;;8.85;75.46;99495.97;4953588;29;20041;-81
2022/04/10 09:59:48;;;;;;;6.88;4.07;;;;;;;8.90;74.25;99488.88;4953670;29;20035;-81
2022/04/10 10:02:16;;;;;;;17.17;10.43;;;;;;;8.93;73.70;99499.09;4953514;28;20043;-81
2022/04/10 10:04:44;;;;;;;14.02;7.28;;;;;;;8.81;74.16;99487.50;4937434;28;20027;-79
2022/04/10 10:07:11;;;;;;;8.27;3.33;;;;;;;8.60;72.08;99499.63;5010917;28;20488;-79
2022/04/10 10:09:38;;;;;;;6.25;3.60;;;;;;;8.35;71.37;99498.88;5054373;28;20424;-80
2022/04/10 10:12:05;;;;;;;7.32;3.17;;;;;;;8.11;71.46;99511.91;5053804;28;20029;-80
2022/04/10 10:14:32;;;;;;;7.18;4.28;;;;;;;7.98;72.41;99506.34;5053826;28;20025;-80
2022/04/10 10:17:02;;;;;;;10.18;4.60;;;;;;;7.97;72.46;99516.78;5052223;28;20059;-80
2022/04/10 10:19:30;;;;;;;11.35;5.50;;;;;;;7.90;72.96;99502.34;5052652;28;20120;-80
2022/04/10 10:21:56;;;;;;;8.98;4.40;;;;;;;7.90;74.15;99512.72;5035916;28;20041;-80
2022/04/10 10:24:24;;;;;;;10.57;4.40;;;;;;;8.08;73.93;99508.59;5042596;28;20076;-80
2022/04/10 10:27:11;;;;;;;12.30;5.25;;;;;;;8.15;74.37;99515.22;5041434;28;20139;-80
2022/04/10 10:29:42;;;;;;;30.00;10.40;;;;;;;8.10;73.49;99512.81;5014541;28;20120;-80
2022/04/10 10:32:16;;;;;;;34.47;12.85;;;;;;;8.03;73.28;99519.13;5041438;28;20041;-80
2022/04/10 10:34:43;;;;;;;25.85;10.85;;;;;;;8.00;75.71;99514.91;5019569;28;20041;-80
2022/04/10 10:37:11;;;;;;;40.15;15.65;;;;;;;8.16;77.28;99506.53;5033393;28;20038;-79
2022/04/10 10:39:49;;;;;;;26.33;9.63;;;;;;;8.47;78.36;99509.66;5027830;28;20032;-79
2022/04/10 10:42:14;;;;;;;13.00;5.95;;;;;;;8.72;77.31;99506.91;5024552;28;20040;-79
2022/04/10 10:44:47;;;;;;;7.13;3.67;;;;;;;8.79;74.28;99496.25;5043081;28;20033;-79
2022/04/10 10:47:18;;;;;;;12.05;4.40;;;;;;;8.67;74.28;99503.63;5017704;28;20104;-80
2022/04/10 10:49:46;;;;;;;12.30;5.82;;;;;;;8.37;74.34;99508.31;5014205;28;20033;-80
2022/04/10 10:52:13;;;;;;;8.30;3.33;;;;;;;8.19;75.50;99509.88;5034533;28;20103;-80
2022/04/10 10:54:50;;;;;;;11.93;7.28;;;;;;;8.05;78.23;99508.69;5051667;28;20362;-80
2022/04/10 10:57:31;;;;;;;12.77;7.97;;;;;;;8.15;78.73;99517.81;5051568;28;20029;-80
2022/04/10 11:00:05;;;;;;;12.55;6.10;;;;;;;8.42;80.16;99515.91;5052733;28;20028;-79
2022/04/10 11:02:36;;;;;;;11.25;6.57;;;;;;;8.57;79.42;99496.31;5052898;28;20032;-79
2022/04/10 11:05:28;;;;;;;9.70;5.57;;;;;;;8.70;78.78;99511.31;5051291;28;20029;-79
2022/04/10 11:08:00;;;;;;;7.40;3.80;;;;;;;8.48;75.46;99489.72;5052869;28;20029;-80
2022/04/10 11:10:29;;;;;;;8.65;4.38;;;;;;;8.55;75.36;99503.28;5053024;28;20483;-80
2022/04/10 11:13:01;;;;;;;5.00;3.28;;;;;;;8.83;74.77;99503.00;5052518;28;20028;-80
2022/04/10 11:15:31;;;;;;;8.05;3.88;;;;;;;9.00;73.07;99519.56;5051328;28;20167;-79
2022/04/10 11:18:22;;;;;;;9.18;5.13;;;;;;;8.88;71.86;99496.69;5052551;28;20106;-80
2022/04/10 11:21:18;;;;;;;9.45;4.68;;;;;;;8.95;70.00;99515.47;5052713;28;20036;-80
2022/04/10 11:23:46;;;;;;;6.95;3.67;;;;;;;8.64;68.25;99488.19;4955224;28;20047;-80
2022/04/10 11:26:18;;;;;;;7.85;4.80;;;;;;;8.72;69.36;99504.31;4971268;28;20035;-80
2022/04/10 11:29:05;;;;;;;17.58;6.57;;;;;;;8.67;70.68;99501.03;4971391;28;20088;-80
2022/04/10 11:31:33;;;;;;;8.10;3.78;;;;;;;8.63;71.26;99507.25;4955149;28;20575;-80
2022/04/10 11:34:28;;;;;;;9.73;3.67;;;;;;;8.40;70.48;99500.41;4970939;28;20043;-80
2022/04/10 11:36:58;;;;;;;12.88;5.70;;;;;;;8.21;71.69;99505.44;4971382;28;20490;-79
2022/04/10 11:39:35;;;;;;;9.23;3.85;;;;;;;8.16;71.74;99516.91;4955122;28;20134;-79